createdAt,value
2022-12-25T00:00:33.183Z,99108.84
2022-12-25T00:03:00.113Z,99109.72
2022-12-25T00:05:26.856Z,99115.38
2022-12-25T00:07:53.399Z,99114.78
2022-12-25T00:10:20.059Z,99105.63
2022-12-25T00:12:46.582Z,99119.56
2022-12-25T00:15:13.122Z,99117.97
2022-12-25T00:17:41.053Z,99120.59
2022-12-25T00:20:08.890Z,99128.94
2022-12-25T00:22:35.486Z,99125.44
2022-12-25T00:25:02.160Z,99122.13
2022-12-25T00:27:31.544Z,99118.06
2022-12-25T00:29:58.146Z,99106.75
2022-12-25T00:32:24.709Z,99114.47
2022-12-25T00:34:52.650Z,99119.75
2022-12-25T00:37:19.193Z,99120.75
2022-12-25T00:39:48.327Z,99129.34
2022-12-25T00:42:14.864Z,99126.63
2022-12-25T00:44:43.881Z,99137.91
2022-12-25T00:47:10.587Z,99140.53
2022-12-25T00:49:37.280Z,99143.97
2022-12-25T00:52:05.342Z,99141.44
2022-12-25T00:54:31.978Z,99142.47
2022-12-25T00:56:58.708Z,99153.16
2022-12-25T00:59:25.319Z,99153.13
2022-12-25T01:01:52.056Z,99146.03
2022-12-25T01:04:18.724Z,99150.78
2022-12-25T01:06:45.446Z,99154.22
2022-12-25T01:09:13.473Z,99142.88
2022-12-25T01:11:40.075Z,99143.97
2022-12-25T01:14:06.915Z,99134.97
2022-12-25T01:16:33.702Z,99128.25
2022-12-25T01:19:00.522Z,99130.53
2022-12-25T01:21:27.570Z,99139.78
2022-12-25T01:23:54.592Z,99144.75
2022-12-25T01:26:24.851Z,99142.63
2022-12-25T01:28:51.788Z,99147.72
2022-12-25T01:31:21.447Z,99146.34
2022-12-25T01:33:48.492Z,99146.84
2022-12-25T01:36:16.439Z,99146.28
2022-12-25T01:38:43.539Z,99150.78
2022-12-25T01:41:11.322Z,99164.13
2022-12-25T01:44:05.541Z,99157.66
2022-12-25T01:46:32.603Z,99163.56
2022-12-25T01:49:02.895Z,99156.19
2022-12-25T01:51:33.777Z,99152.63
2022-12-25T01:54:03.852Z,99157.72
2022-12-25T01:56:31.929Z,99162.84
2022-12-25T01:59:02.372Z,99164.13
2022-12-25T02:01:29.111Z,99163.28
2022-12-25T02:04:03.091Z,99163.28
2022-12-25T02:06:29.744Z,99164.88
2022-12-25T02:08:58.374Z,99165.88
2022-12-25T02:11:24.881Z,99166.91
2022-12-25T02:13:51.416Z,99151.72
2022-12-25T02:16:23.688Z,99150.03
2022-12-25T02:18:56.203Z,99143.25
2022-12-25T02:21:40.246Z,99146.38
2022-12-25T02:24:22.446Z,99146.81
2022-12-25T02:27:08.058Z,99143.81
2022-12-25T02:29:47.785Z,99145.13
2022-12-25T02:32:20.503Z,99147.72
2022-12-25T02:34:51.858Z,99141.53
2022-12-25T02:37:26.448Z,99140.72
2022-12-25T02:40:00.628Z,99138.75
2022-12-25T02:42:34.706Z,99127.44
2022-12-25T02:45:04.111Z,99128.72
2022-12-25T02:47:32.293Z,99133.81
2022-12-25T02:50:00.789Z,99131.34
2022-12-25T02:52:29.709Z,99131.06
2022-12-25T02:55:00.623Z,99138.25
2022-12-25T02:57:33.725Z,99133.38
2022-12-25T03:00:05.230Z,99127.44
2022-12-25T03:02:33.906Z,99130.94
2022-12-25T03:05:03.186Z,99130.38
2022-12-25T03:07:31.131Z,99129.47
2022-12-25T03:10:05.514Z,99136.19
2022-12-25T03:12:40.644Z,99148.81
2022-12-25T03:15:12.404Z,99138.81
2022-12-25T03:17:39.020Z,99140.38
2022-12-25T03:20:06.986Z,99131.97
2022-12-25T03:22:34.282Z,99136.81
2022-12-25T03:25:00.885Z,99142.75
2022-12-25T03:27:33.132Z,99136.94
2022-12-25T03:30:00.212Z,99140.66
2022-12-25T03:32:38.779Z,99148.44
2022-12-25T03:35:14.728Z,99143.25
2022-12-25T03:37:51.120Z,99147.06
2022-12-25T03:40:28.523Z,99147.56
2022-12-25T03:43:01.704Z,99143.25
2022-12-25T03:45:37.071Z,99151.34
2022-12-25T03:48:06.979Z,99139.53
2022-12-25T03:50:37.609Z,99135.72
2022-12-25T03:53:09.749Z,99131.63
2022-12-25T03:55:36.859Z,99128.63
2022-12-25T03:58:03.695Z,99128.94
2022-12-25T04:00:30.268Z,99131.03
2022-12-25T04:02:56.907Z,99137.72
2022-12-25T04:05:24.812Z,99136.16
2022-12-25T04:07:51.524Z,99127.84
2022-12-25T04:10:18.382Z,99127.03
2022-12-25T04:12:44.968Z,99130.53
2022-12-25T04:15:11.554Z,99122.72
2022-12-25T04:17:38.131Z,99121.13
2022-12-25T04:20:05.802Z,99113.81
2022-12-25T04:22:33.865Z,99115.81
2022-12-25T04:25:00.463Z,99107.69
2022-12-25T04:27:27.200Z,99111.19
2022-12-25T04:29:53.697Z,99103.38
2022-12-25T04:32:20.432Z,99098.19
2022-12-25T04:34:46.991Z,99094.25
2022-12-25T04:37:13.647Z,99097.19
2022-12-25T04:39:41.647Z,99100.69
2022-12-25T04:42:08.186Z,99097.69
2022-12-25T04:44:34.720Z,99093.09
2022-12-25T04:47:05.876Z,99085.06
2022-12-25T04:49:35.915Z,99078.63
2022-12-25T04:52:02.436Z,99082.44
2022-12-25T04:54:29.005Z,99072.44
2022-12-25T04:56:57.379Z,99074.03
2022-12-25T04:59:24.109Z,99068.31
2022-12-25T05:01:50.693Z,99076.94
2022-12-25T05:04:17.413Z,99071.22
2022-12-25T05:06:44.211Z,99073.31
2022-12-25T05:09:10.733Z,99089.44
2022-12-25T05:11:37.428Z,99092.03
2022-12-25T05:14:05.339Z,99085.00
2022-12-25T05:16:31.917Z,99089.91
2022-12-25T05:18:58.518Z,99094.22
2022-12-25T05:21:25.121Z,99098.53
2022-12-25T05:23:52.648Z,99090.63
2022-12-25T05:26:21.189Z,99095.75
2022-12-25T05:28:48.243Z,99100.22
2022-12-25T05:31:17.098Z,99102.75
2022-12-25T05:33:43.617Z,99110.06
2022-12-25T05:36:12.585Z,99117.25
2022-12-25T05:38:39.634Z,99113.75
2022-12-25T05:41:06.374Z,99113.75
2022-12-25T05:43:33.131Z,99117.25
2022-12-25T05:46:04.495Z,99114.56
2022-12-25T05:48:32.533Z,99114.84
2022-12-25T05:51:04.251Z,99107.53
2022-12-25T05:53:30.823Z,99111.84
2022-12-25T05:56:00.965Z,99109.94
2022-12-25T05:58:27.547Z,99099.94
2022-12-25T06:00:54.114Z,99103.44
2022-12-25T06:03:21.046Z,99105.03
2022-12-25T06:05:49.459Z,99102.22
2022-12-25T06:08:15.989Z,99102.22
2022-12-25T06:10:42.502Z,99094.88
2022-12-25T06:13:09.202Z,99092.47
2022-12-25T06:15:38.713Z,99093.59
2022-12-25T06:18:05.363Z,99094.88
2022-12-25T06:20:32.122Z,99099.81
2022-12-25T06:23:00.021Z,99096.00
2022-12-25T06:25:26.722Z,99100.50
2022-12-25T06:27:53.376Z,99093.69
2022-12-25T06:30:20.194Z,99091.75
2022-12-25T06:32:46.744Z,99085.25
2022-12-25T06:35:13.493Z,99077.44
2022-12-25T06:37:40.074Z,99076.16
2022-12-25T06:40:09.099Z,99070.75
2022-12-25T06:42:35.609Z,99066.44
2022-12-25T06:45:02.157Z,99073.13
2022-12-25T06:47:28.865Z,99076.31
2022-12-25T06:49:55.439Z,99073.31
2022-12-25T06:52:22.156Z,99077.91
2022-12-25T06:54:48.733Z,99077.91
2022-12-25T06:57:16.786Z,99081.72
2022-12-25T06:59:43.328Z,99084.78
2022-12-25T07:02:18.940Z,99074.75
2022-12-25T07:04:47.095Z,99065.81
2022-12-25T07:07:14.450Z,99062.31
2022-12-25T07:09:41.471Z,99062.31
2022-12-25T07:12:17.253Z,99052.28
2022-12-25T07:14:43.834Z,99057.72
2022-12-25T07:17:10.431Z,99060.41
2022-12-25T07:19:42.668Z,99061.22
2022-12-25T07:22:11.440Z,99050.06
2022-12-25T07:24:37.972Z,99043.53
2022-12-25T07:27:04.635Z,99042.94
2022-12-25T07:29:32.838Z,99049.97
2022-12-25T07:31:59.480Z,99052.34
2022-12-25T07:34:26.461Z,99064.28
2022-12-25T07:36:55.005Z,99065.25
2022-12-25T07:39:21.706Z,99071.97
2022-12-25T07:41:48.191Z,99063.56
2022-12-25T07:44:15.350Z,99059.44
2022-12-25T07:46:43.554Z,99055.94
2022-12-25T07:49:10.220Z,99056.41
2022-12-25T07:51:36.861Z,99039.84
2022-12-25T07:54:03.597Z,99031.63
2022-12-25T07:56:30.261Z,99031.00
2022-12-25T07:58:56.923Z,99026.06
2022-12-25T08:01:26.151Z,99003.50
2022-12-25T08:03:56.092Z,98987.41
2022-12-25T08:06:25.097Z,98986.50
2022-12-25T08:08:51.623Z,98985.06
2022-12-25T08:11:18.401Z,98989.84
2022-12-25T08:13:45.015Z,98989.91
2022-12-25T08:16:11.637Z,98993.91
2022-12-25T08:18:39.139Z,98996.00
2022-12-25T08:21:09.772Z,99012.91
2022-12-25T08:23:37.863Z,99021.53
2022-12-25T08:26:06.498Z,99030.47
2022-12-25T08:28:34.348Z,99024.72
2022-12-25T08:31:06.365Z,99020.56
2022-12-25T08:33:32.939Z,99027.78
2022-12-25T08:36:02.078Z,99031.00
2022-12-25T08:38:29.988Z,99023.97
2022-12-25T08:40:56.568Z,99021.72
2022-12-25T08:43:23.117Z,99024.13
2022-12-25T08:45:49.695Z,99027.94
2022-12-25T08:48:16.312Z,99022.50
2022-12-25T08:50:45.580Z,99028.94
2022-12-25T08:53:12.457Z,99017.13
2022-12-25T08:55:40.738Z,99018.91
2022-12-25T08:58:07.427Z,99012.88
2022-12-25T09:00:34.025Z,99007.91
2022-12-25T09:03:02.095Z,99002.69
2022-12-25T09:05:28.985Z,99011.31
2022-12-25T09:07:55.601Z,99026.13
2022-12-25T09:10:22.254Z,99017.19
2022-12-25T09:12:50.181Z,99015.63
2022-12-25T09:15:16.902Z,99025.00
2022-12-25T09:17:43.407Z,99002.88
2022-12-25T09:20:10.361Z,98983.88
2022-12-25T09:22:37.078Z,98985.78
2022-12-25T09:25:04.281Z,98984.66
2022-12-25T09:27:30.857Z,98988.16
2022-12-25T09:29:58.688Z,98991.06
2022-12-25T09:32:25.438Z,98984.03
2022-12-25T09:34:51.942Z,98980.22
2022-12-25T09:37:18.498Z,98986.44
2022-12-25T09:39:46.527Z,98985.31
2022-12-25T09:42:17.129Z,98980.38
2022-12-25T09:44:46.894Z,98984.38
2022-12-25T09:47:18.483Z,98978.94
2022-12-25T09:49:52.465Z,98972.41
2022-12-25T09:52:22.050Z,98972.91
2022-12-25T09:54:56.284Z,98972.91
2022-12-25T09:57:25.502Z,98976.41
2022-12-25T09:59:54.049Z,98972.28
2022-12-25T10:02:53.397Z,98963.47
2022-12-25T10:05:42.395Z,98959.16
2022-12-25T10:08:17.739Z,98950.41
2022-12-25T10:10:51.668Z,98942.13
2022-12-25T10:13:37.801Z,98931.44
2022-12-25T10:16:16.503Z,98929.22
2022-12-25T10:18:59.396Z,98932.44
2022-12-25T10:21:26.288Z,98942.97
2022-12-25T10:24:05.394Z,98951.25
2022-12-25T10:26:33.991Z,98962.09
2022-12-25T10:29:11.679Z,98971.53
2022-12-25T10:31:38.254Z,98959.38
2022-12-25T10:34:06.635Z,98953.97
2022-12-25T10:36:33.510Z,98957.03
2022-12-25T10:39:00.138Z,98955.41
2022-12-25T10:41:39.411Z,98952.22
2022-12-25T10:44:14.488Z,98957.00
2022-12-25T10:46:41.572Z,98939.59
2022-12-25T10:49:15.270Z,98943.44
2022-12-25T10:51:42.167Z,98940.41
2022-12-25T10:54:20.584Z,98939.16
2022-12-25T10:56:53.656Z,98916.63
2022-12-25T10:59:20.180Z,98893.94
2022-12-25T11:01:51.010Z,98873.03
2022-12-25T11:04:24.636Z,98879.75
2022-12-25T11:07:01.409Z,98881.66
2022-12-25T11:09:28.060Z,98877.53
2022-12-25T11:11:54.776Z,98880.38
2022-12-25T11:14:22.318Z,98875.25
2022-12-25T11:16:49.101Z,98867.00
2022-12-25T11:19:25.627Z,98860.09
2022-12-25T11:21:54.053Z,98848.91
2022-12-25T11:24:24.834Z,98856.09
2022-12-25T11:26:53.452Z,98856.59
2022-12-25T11:29:26.099Z,98852.72
2022-12-25T11:31:55.047Z,98858.03
2022-12-25T11:34:30.160Z,98850.19
2022-12-25T11:36:58.907Z,98849.72
2022-12-25T11:39:28.362Z,98850.84
2022-12-25T11:42:01.989Z,98842.69
2022-12-25T11:44:38.500Z,98829.78
2022-12-25T11:47:13.586Z,98828.19
2022-12-25T11:49:50.040Z,98820.53
2022-12-25T11:52:19.383Z,98823.56
2022-12-25T11:54:52.869Z,98833.31
2022-12-25T11:57:20.856Z,98831.72
2022-12-25T11:59:53.716Z,98840.16
2022-12-25T12:02:28.766Z,98850.06
2022-12-25T12:05:06.843Z,98849.91
2022-12-25T12:07:35.233Z,98847.03
2022-12-25T12:10:13.676Z,98830.25
2022-12-25T12:12:50.582Z,98844.16
2022-12-25T12:15:27.285Z,98826.94
2022-12-25T12:17:53.832Z,98822.94
2022-12-25T12:20:30.352Z,98816.69
2022-12-25T12:22:58.030Z,98812.09
2022-12-25T12:25:25.159Z,98796.13
2022-12-25T12:27:59.798Z,98779.03
2022-12-25T12:30:32.270Z,98780.50
2022-12-25T12:33:01.879Z,98782.75
2022-12-25T12:35:33.247Z,98789.44
2022-12-25T12:38:03.401Z,98776.69
2022-12-25T12:40:33.822Z,98784.03
2022-12-25T12:43:01.439Z,98770.91
2022-12-25T12:45:30.673Z,98761.53
2022-12-25T12:47:57.647Z,98756.91
2022-12-25T12:50:32.643Z,98750.34
2022-12-25T12:53:00.823Z,98750.00
2022-12-25T12:55:29.065Z,98747.66
2022-12-25T12:57:59.363Z,98730.88
2022-12-25T13:00:31.726Z,98723.56
2022-12-25T13:03:16.802Z,98734.88
2022-12-25T13:05:49.664Z,98729.47
2022-12-25T13:08:31.271Z,98725.75
2022-12-25T13:11:07.330Z,98711.56
2022-12-25T13:13:36.767Z,98705.66
2022-12-25T13:16:03.975Z,98707.38
2022-12-25T13:18:31.739Z,98732.44
2022-12-25T13:21:02.940Z,98726.34
2022-12-25T13:23:31.969Z,98719.47
2022-12-25T13:26:00.182Z,98719.13
2022-12-25T13:28:28.197Z,98722.31
2022-12-25T13:31:02.082Z,98706.53
2022-12-25T13:33:29.195Z,98710.47
2022-12-25T13:35:55.794Z,98702.66
2022-12-25T13:38:27.255Z,98704.03
2022-12-25T13:40:56.334Z,98701.47
2022-12-25T13:43:22.948Z,98695.09
2022-12-25T13:45:54.600Z,98697.00
2022-12-25T13:48:21.614Z,98691.75
2022-12-25T13:50:56.617Z,98694.78
2022-12-25T13:53:24.768Z,98685.69
2022-12-25T13:55:54.345Z,98688.72
2022-12-25T13:58:25.086Z,98693.03
2022-12-25T14:00:53.783Z,98692.72
2022-12-25T14:03:23.752Z,98700.38
2022-12-25T14:05:56.250Z,98709.31
2022-12-25T14:08:27.046Z,98696.06
2022-12-25T14:10:55.583Z,98697.34
2022-12-25T14:13:24.925Z,98685.69
2022-12-25T14:15:52.135Z,98687.59
2022-12-25T14:18:21.920Z,98675.94
2022-12-25T14:20:58.757Z,98653.44
2022-12-25T14:23:28.744Z,98665.09
2022-12-25T14:25:55.316Z,98661.25
2022-12-25T14:28:25.272Z,98655.50
2022-12-25T14:30:52.254Z,98641.13
2022-12-25T14:33:21.569Z,98635.59
2022-12-25T14:35:49.173Z,98641.34
2022-12-25T14:38:22.859Z,98627.75
2022-12-25T14:41:00.198Z,98626.50
2022-12-25T14:43:28.359Z,98633.38
2022-12-25T14:45:56.222Z,98644.09
2022-12-25T14:48:25.744Z,98649.53
2022-12-25T14:50:58.216Z,98656.06
2022-12-25T14:53:36.138Z,98652.56
2022-12-25T14:56:06.541Z,98642.19
2022-12-25T14:58:38.124Z,98653.03
2022-12-25T15:01:05.276Z,98653.38
2022-12-25T15:03:36.409Z,98654.00
2022-12-25T15:06:04.811Z,98658.16
2022-12-25T15:08:33.129Z,98646.88
2022-12-25T15:11:02.313Z,98636.34
2022-12-25T15:13:31.531Z,98641.28
2022-12-25T15:16:02.005Z,98650.22
2022-12-25T15:18:33.051Z,98644.19
2022-12-25T15:21:00.000Z,98651.72
2022-12-25T15:23:26.512Z,98654.28
2022-12-25T15:25:53.217Z,98652.84
2022-12-25T15:28:20.361Z,98654.16
2022-12-25T15:30:48.592Z,98650.69
2022-12-25T15:33:16.635Z,98640.19
2022-12-25T15:35:43.836Z,98646.13
2022-12-25T15:38:11.098Z,98653.28
2022-12-25T15:40:37.801Z,98639.91
2022-12-25T15:43:11.221Z,98655.09
2022-12-25T15:45:50.410Z,98641.56
2022-12-25T15:48:16.920Z,98656.38
2022-12-25T15:50:43.660Z,98656.38
2022-12-25T15:53:10.666Z,98668.66
2022-12-25T15:55:37.437Z,98654.66
2022-12-25T15:58:04.044Z,98669.31
2022-12-25T16:00:30.683Z,98658.63
2022-12-25T16:02:58.707Z,98663.91
2022-12-25T16:05:26.816Z,98672.50
2022-12-25T16:07:53.371Z,98674.59
2022-12-25T16:10:20.170Z,98671.06
2022-12-25T16:12:47.005Z,98664.25
2022-12-25T16:15:14.948Z,98662.31
2022-12-25T16:17:42.292Z,98657.84
2022-12-25T16:20:10.901Z,98646.41
2022-12-25T16:22:37.574Z,98655.47
2022-12-25T16:25:04.619Z,98651.81
2022-12-25T16:27:31.328Z,98652.94
2022-12-25T16:29:57.879Z,98644.63
2022-12-25T16:32:24.616Z,98654.22
2022-12-25T16:34:51.338Z,98644.50
2022-12-25T16:37:19.787Z,98645.59
2022-12-25T16:39:46.460Z,98649.09
2022-12-25T16:42:13.223Z,98620.13
2022-12-25T16:44:39.756Z,98623.16
2022-12-25T16:47:06.285Z,98624.88
2022-12-25T16:49:33.265Z,98629.34
2022-12-25T16:51:59.992Z,98629.19
2022-12-25T16:54:28.235Z,98621.38
2022-12-25T16:56:54.923Z,98618.53
2022-12-25T16:59:21.479Z,98607.38
2022-12-25T17:01:48.355Z,98598.16
2022-12-25T17:04:15.051Z,98605.16
2022-12-25T17:06:41.770Z,98608.47
2022-12-25T17:09:08.319Z,98615.78
2022-12-25T17:11:36.415Z,98614.50
2022-12-25T17:14:04.747Z,98615.13
2022-12-25T17:16:33.307Z,98608.44
2022-12-25T17:19:02.441Z,98614.78
2022-12-25T17:21:29.556Z,98613.28
2022-12-25T17:24:02.326Z,98618.16
2022-12-25T17:26:30.611Z,98618.41
2022-12-25T17:28:58.605Z,98613.25
2022-12-25T17:31:25.537Z,98615.94
2022-12-25T17:33:52.404Z,98606.19
2022-12-25T17:36:20.875Z,98615.22
2022-12-25T17:38:47.820Z,98619.75
2022-12-25T17:41:16.240Z,98615.50
2022-12-25T17:43:42.995Z,98615.66
2022-12-25T17:46:12.749Z,98619.03
2022-12-25T17:48:39.603Z,98624.88
2022-12-25T17:51:11.197Z,98625.66
2022-12-25T17:53:39.171Z,98622.56
2022-12-25T17:56:06.578Z,98616.31
2022-12-25T17:58:33.662Z,98617.69
2022-12-25T18:01:05.632Z,98614.00
2022-12-25T18:03:33.956Z,98615.38
2022-12-25T18:06:00.922Z,98618.34
2022-12-25T18:08:32.436Z,98617.13
2022-12-25T18:11:03.842Z,98619.06
2022-12-25T18:13:30.436Z,98613.84
2022-12-25T18:15:57.311Z,98624.09
2022-12-25T18:18:23.911Z,98613.78
2022-12-25T18:20:53.225Z,98618.69
2022-12-25T18:23:19.908Z,98626.63
2022-12-25T18:25:46.660Z,98627.44
2022-12-25T18:28:13.604Z,98633.31
2022-12-25T18:30:40.600Z,98617.22
2022-12-25T18:33:07.516Z,98613.03
2022-12-25T18:35:34.642Z,98607.50
2022-12-25T18:38:02.792Z,98606.34
2022-12-25T18:40:29.381Z,98609.28
2022-12-25T18:43:02.712Z,98605.78
2022-12-25T18:45:29.985Z,98598.06
2022-12-25T18:47:56.646Z,98585.72
2022-12-25T18:50:23.340Z,98580.66
2022-12-25T18:52:51.603Z,98585.38
2022-12-25T18:55:20.333Z,98583.03
2022-12-25T18:57:47.309Z,98579.78
2022-12-25T19:00:14.375Z,98576.06
2022-12-25T19:02:41.094Z,98583.97
2022-12-25T19:05:08.048Z,98571.63
2022-12-25T19:07:34.763Z,98567.31
2022-12-25T19:10:01.272Z,98572.53
2022-12-25T19:12:29.176Z,98577.06
2022-12-25T19:14:55.724Z,98570.28
2022-12-25T19:17:26.631Z,98574.34
2022-12-25T19:19:57.897Z,98567.91
2022-12-25T19:22:24.427Z,98568.47
2022-12-25T19:24:50.942Z,98565.19
2022-12-25T19:27:17.832Z,98565.41
2022-12-25T19:29:45.803Z,98565.41
2022-12-25T19:32:12.360Z,98571.06
2022-12-25T19:34:38.956Z,98562.38
2022-12-25T19:37:05.480Z,98559.63
2022-12-25T19:39:32.267Z,98576.19
2022-12-25T19:41:58.954Z,98572.72
2022-12-25T19:44:26.213Z,98565.81
2022-12-25T19:46:54.136Z,98557.53
2022-12-25T19:49:20.951Z,98558.00
2022-12-25T19:51:47.770Z,98564.09
2022-12-25T19:54:16.689Z,98561.25
2022-12-25T19:56:43.415Z,98563.69
2022-12-25T19:59:12.331Z,98566.28
2022-12-25T20:01:39.623Z,98554.50
2022-12-25T20:04:08.845Z,98559.50
2022-12-25T20:06:37.672Z,98561.66
2022-12-25T20:09:06.205Z,98560.44
2022-12-25T20:11:33.768Z,98546.03
2022-12-25T20:14:01.273Z,98559.19
2022-12-25T20:16:27.909Z,98547.16
2022-12-25T20:18:54.957Z,98534.13
2022-12-25T20:21:23.819Z,98531.72
2022-12-25T20:23:52.199Z,98550.78
2022-12-25T20:26:24.274Z,98534.44
2022-12-25T20:28:51.983Z,98553.53
2022-12-25T20:31:21.108Z,98565.22
2022-12-25T20:33:48.125Z,98556.00
2022-12-25T20:36:15.393Z,98542.06
2022-12-25T20:38:43.514Z,98539.13
2022-12-25T20:41:30.020Z,98525.59
2022-12-25T20:43:57.338Z,98526.19
2022-12-25T20:46:24.524Z,98526.31
2022-12-25T20:48:51.715Z,98537.63
2022-12-25T20:51:20.656Z,98542.03
2022-12-25T20:53:49.271Z,98560.19
2022-12-25T20:56:18.040Z,98550.31
2022-12-25T20:58:46.289Z,98563.47
2022-12-25T21:01:15.646Z,98549.41
2022-12-25T21:03:43.011Z,98560.53
2022-12-25T21:06:10.421Z,98556.81
2022-12-25T21:08:38.147Z,98556.22
2022-12-25T21:11:11.731Z,98558.97
2022-12-25T21:13:40.544Z,98556.91
2022-12-25T21:16:08.926Z,98563.03
2022-12-25T21:18:39.331Z,98549.66
2022-12-25T21:21:07.027Z,98550.44
2022-12-25T21:23:34.617Z,98543.50
2022-12-25T21:26:10.912Z,98541.94
2022-12-25T21:28:37.623Z,98549.31
2022-12-25T21:31:05.295Z,98541.81
2022-12-25T21:33:32.747Z,98550.56
2022-12-25T21:36:05.204Z,98542.03
2022-12-25T21:38:32.015Z,98535.56
2022-12-25T21:41:02.833Z,98533.03
2022-12-25T21:43:31.128Z,98532.63
2022-12-25T21:46:01.692Z,98529.75
2022-12-25T21:48:28.613Z,98529.75
2022-12-25T21:50:55.144Z,98537.81
2022-12-25T21:53:22.328Z,98544.19
2022-12-25T21:55:56.326Z,98544.19
2022-12-25T21:58:23.207Z,98545.53
2022-12-25T22:00:51.313Z,98542.13
2022-12-25T22:03:18.204Z,98542.78
2022-12-25T22:05:45.034Z,98546.22
2022-12-25T22:08:11.610Z,98551.09
2022-12-25T22:10:38.217Z,98545.91
2022-12-25T22:13:04.862Z,98548.75
2022-12-25T22:15:31.606Z,98561.31
2022-12-25T22:17:59.756Z,98557.22
2022-12-25T22:20:28.423Z,98586.75
2022-12-25T22:22:55.067Z,98570.75
2022-12-25T22:25:22.170Z,98570.53
2022-12-25T22:27:49.471Z,98573.13
2022-12-25T22:30:18.205Z,98573.34
2022-12-25T22:32:45.246Z,98577.56
2022-12-25T22:35:14.023Z,98589.47
2022-12-25T22:37:42.204Z,98598.09
2022-12-25T22:40:10.843Z,98601.38
2022-12-25T22:42:37.391Z,98593.56
2022-12-25T22:45:05.058Z,98606.25
2022-12-25T22:47:31.650Z,98597.03
2022-12-25T22:49:58.275Z,98603.84
2022-12-25T22:52:26.207Z,98602.34
2022-12-25T22:54:52.812Z,98598.38
2022-12-25T22:57:19.504Z,98592.94
2022-12-25T22:59:46.087Z,98595.53
2022-12-25T23:02:12.828Z,98590.78
2022-12-25T23:04:39.707Z,98598.03
2022-12-25T23:07:06.257Z,98593.47
2022-12-25T23:09:34.266Z,98598.13
2022-12-25T23:12:00.872Z,98592.59
2022-12-25T23:14:27.520Z,98595.97
2022-12-25T23:16:54.288Z,98598.44
2022-12-25T23:19:20.901Z,98602.53
2022-12-25T23:21:47.480Z,98605.25
2022-12-25T23:24:14.128Z,98605.00
2022-12-25T23:26:42.127Z,98596.41
2022-12-25T23:29:08.720Z,98594.81
2022-12-25T23:31:37.816Z,98595.59
2022-12-25T23:34:05.176Z,98595.03
2022-12-25T23:36:32.140Z,98610.13
2022-12-25T23:39:04.718Z,98601.59
2022-12-25T23:41:33.597Z,98603.66
2022-12-25T23:44:01.578Z,98601.97
2022-12-25T23:46:28.225Z,98600.28
2022-12-25T23:48:54.793Z,98594.59
2022-12-25T23:51:21.409Z,98601.97
2022-12-25T23:53:47.972Z,98597.78
2022-12-25T23:56:14.709Z,98606.41
2022-12-25T23:58:41.398Z,98593.16
